Time;durP1;ratioP1;P1;durP2;ratioP2;P2;SDS_P1;SDS_P2;PMS_P1;PMS_P2;Temp;Humidity;BMP_temperature;BMP_pressure;BME280_temperature;BME280_humidity;BME280_pressure;Samples;Min_cycle;Max_cycle;Signal;HPM_P1;HPM_P2
2021/12/20 00:01:06;;;;;;;21.75;4.20;;;;;;;5.41;100.00;102187.72;5036580;28;20112;-85
2021/12/20 00:03:32;;;;;;;18.88;4.13;;;;;;;5.41;100.00;102190.38;5023606;28;20049;-85
2021/12/20 00:05:57;;;;;;;19.70;3.80;;;;;;;5.39;100.00;102178.13;5020478;28;20551;-86
2021/12/20 00:08:22;;;;;;;21.52;5.22;;;;;;;5.41;100.00;102184.22;5008515;28;20123;-85
2021/12/20 00:10:48;;;;;;;19.45;4.78;;;;;;;5.36;100.00;102175.66;5016524;28;20056;-86
2021/12/20 00:13:14;;;;;;;18.83;4.05;;;;;;;5.37;100.00;102174.69;5021563;28;20098;-85
2021/12/20 00:15:39;;;;;;;22.67;4.15;;;;;;;5.37;100.00;102174.69;5039142;28;20489;-86
2021/12/20 00:18:04;;;;;;;21.55;4.10;;;;;;;5.35;100.00;102171.25;5013399;28;20034;-85
2021/12/20 00:20:30;;;;;;;20.08;4.55;;;;;;;5.31;100.00;102175.09;5025983;28;20044;-85
2021/12/20 00:22:56;;;;;;;22.35;4.18;;;;;;;5.28;100.00;102180.59;5028091;28;20174;-85
2021/12/20 00:25:21;;;;;;;24.88;5.28;;;;;;;5.30;100.00;102182.22;5023700;28;20057;-85
2021/12/20 00:27:47;;;;;;;23.65;4.35;;;;;;;5.32;100.00;102179.44;5010827;28;20064;-85
2021/12/20 00:30:12;;;;;;;21.00;4.63;;;;;;;5.32;100.00;102176.78;5046450;28;20033;-85
2021/12/20 00:32:38;;;;;;;23.50;4.75;;;;;;;5.30;100.00;102176.91;5018822;28;20401;-85
2021/12/20 00:35:04;;;;;;;23.30;4.18;;;;;;;5.33;100.00;102163.41;5045014;28;20364;-85
2021/12/20 00:40:23;;;;;;;21.25;4.30;;;;;;;5.31;100.00;102164.44;5046303;28;20039;-85
2021/12/20 00:42:57;;;;;;;20.00;4.05;;;;;;;5.27;100.00;102160.28;5011907;28;20049;-84
2021/12/20 00:45:28;;;;;;;19.60;5.00;;;;;;;5.20;100.00;102168.63;5028446;28;20049;-85
2021/12/20 00:47:54;;;;;;;21.67;4.57;;;;;;;5.25;100.00;102170.16;5045148;28;20048;-84
2021/12/20 00:50:21;;;;;;;27.70;5.20;;;;;;;5.24;100.00;102168.44;5045671;28;20025;-85
2021/12/20 00:52:48;;;;;;;23.33;4.65;;;;;;;5.23;100.00;102161.41;5027458;28;20048;-85
2021/12/20 00:55:16;;;;;;;20.58;4.60;;;;;;;5.24;100.00;102163.13;5040062;28;20033;-84
2021/12/20 00:57:46;;;;;;;17.13;3.67;;;;;;;5.22;100.00;102159.69;5028045;28;20044;-85
2021/12/20 01:00:12;;;;;;;22.33;4.55;;;;;;;5.19;100.00;102166.91;5044628;28;20087;-85
2021/12/20 01:02:38;;;;;;;19.20;4.07;;;;;;;5.20;100.00;102171.28;5049660;28;20123;-85
2021/12/20 01:05:05;;;;;;;24.60;5.28;;;;;;;5.18;100.00;102173.19;5007533;28;20136;-85
2021/12/20 01:07:30;;;;;;;22.90;4.07;;;;;;;5.19;100.00;102163.41;5025652;28;20075;-85
2021/12/20 01:09:59;;;;;;;22.02;4.68;;;;;;;5.20;100.00;102170.44;5044389;28;20041;-86
2021/12/20 01:12:29;;;;;;;25.05;5.07;;;;;;;5.20;100.00;102173.94;5025512;28;20049;-86
2021/12/20 01:14:59;;;;;;;21.48;4.20;;;;;;;5.19;100.00;102182.88;5038124;28;20056;-85
2021/12/20 01:17:24;;;;;;;20.83;5.30;;;;;;;5.16;100.00;102183.06;5023428;28;20059;-85
2021/12/20 01:19:50;;;;;;;21.73;4.32;;;;;;;5.15;100.00;102186.69;5044188;28;20045;-85
2021/12/20 01:22:16;;;;;;;23.50;4.95;;;;;;;5.16;100.00;102183.06;5019963;28;20407;-85
2021/12/20 01:24:41;;;;;;;19.70;4.07;;;;;;;5.16;100.00;102183.06;5043511;28;20037;-84
2021/12/20 01:27:07;;;;;;;19.75;4.53;;;;;;;5.17;100.00;102176.78;5044099;28;20041;-84
2021/12/20 01:29:32;;;;;;;20.88;3.75;;;;;;;5.16;100.00;102176.91;5025977;28;20106;-85
2021/12/20 01:31:57;;;;;;;22.35;4.93;;;;;;;5.15;100.00;102169.84;5010739;28;20037;-85
2021/12/20 01:34:23;;;;;;;17.13;4.53;;;;;;;5.14;100.00;102169.00;4996656;28;20047;-84
2021/12/20 01:36:48;;;;;;;18.60;4.30;;;;;;;5.14;100.00;102174.31;5043723;28;20119;-85
2021/12/20 01:39:14;;;;;;;24.33;5.30;;;;;;;5.13;100.00;102183.28;5021178;28;20049;-84
2021/12/20 01:41:41;;;;;;;24.88;4.22;;;;;;;5.10;100.00;102172.81;5010313;28;20037;-85
2021/12/20 01:44:07;;;;;;;21.00;4.50;;;;;;;5.09;100.00;102168.47;5023262;28;20048;-84
2021/12/20 01:46:33;;;;;;;25.23;4.57;;;;;;;5.10;100.00;102177.28;5020357;28;20379;-85
2021/12/20 01:49:00;;;;;;;20.55;4.50;;;;;;;5.10;100.00;102179.94;5022811;28;20044;-84
2021/12/20 01:54:04;;;;;;;20.30;4.82;;;;;;;5.09;100.00;102170.22;5029573;28;20068;-85
2021/12/20 01:56:32;;;;;;;18.67;3.55;;;;;;;5.08;100.00;102168.53;4992973;28;20045;-85
2021/12/20 02:02:20;;;;;;;20.63;4.45;;;;;;;5.04;100.00;102162.56;5025633;28;20141;-84
2021/12/20 02:04:49;;;;;;;20.67;3.70;;;;;;;5.03;100.00;102163.47;5018678;28;20041;-85
2021/12/20 02:07:33;;;;;;;22.15;4.38;;;;;;;5.07;100.00;102167.69;4995324;28;20041;-84
2021/12/20 02:09:59;;;;;;;29.45;4.95;;;;;;;5.08;100.00;102168.53;5043140;28;20091;-85
2021/12/20 02:12:24;;;;;;;21.85;4.60;;;;;;;5.06;100.00;102171.28;5023821;28;20041;-85
2021/12/20 02:14:49;;;;;;;24.80;5.15;;;;;;;5.08;100.00;102173.84;5012845;28;20120;-83
2021/12/20 02:17:15;;;;;;;22.70;4.53;;;;;;;5.03;100.00;102171.47;5023085;28;20116;-84
2021/12/20 02:19:40;;;;;;;22.60;4.53;;;;;;;5.02;100.00;102169.78;5043689;28;20135;-83
2021/12/20 02:22:06;;;;;;;29.67;5.05;;;;;;;5.03;100.00;102176.78;5026472;28;20147;-84
2021/12/20 02:24:32;;;;;;;26.85;5.00;;;;;;;5.01;100.00;102180.53;5033963;28;20053;-84
2021/12/20 02:26:57;;;;;;;25.27;5.22;;;;;;;5.02;100.00;102174.25;5034089;28;20041;-86
2021/12/20 02:29:39;;;;;;;20.60;4.28;;;;;;;4.99;100.00;102180.59;5002193;28;20034;-83
2021/12/20 02:37:32;;;;;;;32.28;5.55;;;;;;;4.86;100.00;102174.31;5006040;28;20047;-84
2021/12/20 02:39:57;;;;;;;28.95;5.00;;;;;;;4.86;100.00;102169.00;5041099;28;20045;-84
2021/12/20 02:42:29;;;;;;;20.00;3.90;;;;;;;4.85;100.00;102164.63;5021498;28;20103;-84
2021/12/20 02:45:32;;;;;;;21.73;4.50;;;;;;;4.85;100.00;102164.63;5040580;28;20041;-84
2021/12/20 02:47:47;;;;;;;28.15;5.03;;;;;;;4.85;100.00;102162.81;5021552;28;20405;-85
2021/12/20 02:50:14;;;;;;;24.52;5.25;;;;;;;4.79;100.00;102159.69;5023665;28;20585;-84
2021/12/20 02:52:40;;;;;;;22.98;4.53;;;;;;;4.83;100.00;102145.25;5006000;28;20055;-85
2021/12/20 02:55:07;;;;;;;28.30;4.68;;;;;;;4.79;100.00;102157.03;5022779;28;20041;-84
2021/12/20 02:57:35;;;;;;;25.30;4.65;;;;;;;4.71;100.00;102160.16;5022768;28;20132;-85
2021/12/20 03:00:04;;;;;;;24.05;5.55;;;;;;;4.63;100.00;102160.63;5042635;28;20126;-85
2021/12/20 03:02:29;;;;;;;23.02;4.88;;;;;;;4.58;100.00;102160.03;5039031;28;20512;-84
2021/12/20 03:04:55;;;;;;;26.48;4.47;;;;;;;4.59;100.00;102167.06;5035531;28;20044;-86
2021/12/20 03:07:24;;;;;;;19.33;5.47;;;;;;;4.56;100.00;102159.28;5023607;28;20664;-85
2021/12/20 03:09:55;;;;;;;18.60;5.00;;;;;;;4.53;100.00;102168.28;5021620;28;20040;-84
2021/12/20 03:12:25;;;;;;;22.88;4.72;;;;;;;4.50;100.00;102167.63;5020348;28;20029;-85
2021/12/20 03:14:55;;;;;;;25.05;4.78;;;;;;;4.49;100.00;102160.59;5000167;28;20196;-84
2021/12/20 03:17:20;;;;;;;24.73;4.63;;;;;;;4.46;100.00;102163.41;5018000;28;20391;-84
2021/12/20 03:19:46;;;;;;;24.50;4.35;;;;;;;4.40;100.00;102169.09;4992797;28;20394;-85
2021/12/20 03:22:11;;;;;;;24.85;5.20;;;;;;;4.40;100.00;102167.31;4995321;28;20077;-84
2021/12/20 03:24:36;;;;;;;18.35;4.45;;;;;;;4.34;100.00;102162.34;5031833;28;20025;-85
2021/12/20 03:27:03;;;;;;;24.83;4.35;;;;;;;4.32;100.00;102164.25;5003056;28;20045;-85
2021/12/20 03:29:28;;;;;;;23.23;4.72;;;;;;;4.24;100.00;102166.50;5001954;28;20053;-84
2021/12/20 03:31:54;;;;;;;27.02;5.03;;;;;;;4.23;100.00;102163.00;5020365;28;20053;-85
2021/12/20 03:34:20;;;;;;;30.48;4.90;;;;;;;4.18;100.00;102162.41;5017561;28;20124;-84
2021/12/20 03:36:46;;;;;;;32.15;5.00;;;;;;;4.14;100.00;102170.63;5021978;28;20049;-85
2021/12/20 03:39:11;;;;;;;25.55;5.05;;;;;;;4.17;100.00;102160.69;5035385;28;20636;-84
2021/12/20 03:41:38;;;;;;;27.83;5.72;;;;;;;4.17;100.00;102159.81;5020427;28;20128;-84
2021/12/20 03:44:06;;;;;;;21.80;4.28;;;;;;;4.15;100.00;102167.88;5020175;28;20120;-85
2021/12/20 03:46:32;;;;;;;22.30;5.82;;;;;;;4.04;100.00;102178.28;5022253;28;20045;-84
2021/12/20 03:48:57;;;;;;;19.30;4.32;;;;;;;4.02;100.00;102177.50;5020437;28;20064;-85
2021/12/20 03:51:22;;;;;;;25.67;4.47;;;;;;;4.00;100.00;102171.41;5014551;28;20041;-86
2021/12/20 03:53:48;;;;;;;30.90;5.60;;;;;;;3.97;100.00;102168.94;5019798;28;20044;-86
2021/12/20 03:56:13;;;;;;;23.05;4.75;;;;;;;3.97;100.00;102168.94;5014147;28;20111;-85
2021/12/20 03:58:39;;;;;;;23.98;5.60;;;;;;;4.00;100.00;102171.41;5017839;28;20068;-84
2021/12/20 04:01:07;;;;;;;23.30;4.95;;;;;;;3.98;100.00;102175.97;5014359;28;20078;-85
2021/12/20 04:03:34;;;;;;;29.33;6.43;;;;;;;3.94;100.00;102180.63;4997953;28;20041;-85
2021/12/20 04:06:02;;;;;;;27.55;5.95;;;;;;;3.96;100.00;102175.19;5018908;28;20048;-84
2021/12/20 04:08:28;;;;;;;27.58;5.68;;;;;;;3.95;100.00;102170.84;5034128;28;20387;-83
2021/12/20 04:10:53;;;;;;;26.75;7.35;;;;;;;3.93;100.00;102178.03;4994665;28;20044;-85
2021/12/20 04:13:19;;;;;;;26.13;6.90;;;;;;;3.97;100.00;102174.25;5017339;28;20068;-84
2021/12/20 04:15:44;;;;;;;25.13;7.05;;;;;;;3.92;100.00;102179.00;5018824;28;20041;-85
2021/12/20 04:18:09;;;;;;;32.67;8.15;;;;;;;3.92;100.00;102181.63;5010929;28;20103;-84
2021/12/20 04:20:35;;;;;;;25.13;6.32;;;;;;;3.89;100.00;102181.81;5024924;28;20132;-84
2021/12/20 04:23:01;;;;;;;28.73;8.10;;;;;;;3.85;100.00;102175.78;5023873;28;20493;-85
2021/12/20 04:25:27;;;;;;;37.25;10.15;;;;;;;3.82;100.00;102174.16;5022123;28;20102;-84
2021/12/20 04:27:52;;;;;;;32.80;10.75;;;;;;;3.73;100.00;102181.81;5040165;28;20506;-84
2021/12/20 04:30:18;;;;;;;29.25;11.45;;;;;;;3.76;100.00;102187.78;5040329;28;20067;-84
2021/12/20 04:32:45;;;;;;;28.13;10.50;;;;;;;3.65;100.00;102184.03;5040171;28;20483;-84
2021/12/20 04:35:13;;;;;;;36.63;12.55;;;;;;;3.63;100.00;102180.63;5027050;28;20037;-85
2021/12/20 04:37:43;;;;;;;50.08;19.02;;;;;;;3.55;100.00;102184.56;5046123;28;20036;-84
2021/12/20 04:40:14;;;;;;;43.38;19.77;;;;;;;3.44;100.00;102180.78;5030434;28;20475;-84
2021/12/20 04:42:40;;;;;;;43.58;18.30;;;;;;;3.34;100.00;102175.13;5001301;28;20497;-84
2021/12/20 04:45:06;;;;;;;40.42;12.40;;;;;;;3.32;100.00;102183.16;5002137;28;20041;-84
2021/12/20 04:47:31;;;;;;;35.58;12.35;;;;;;;3.37;100.00;102183.78;5048719;28;20048;-85
2021/12/20 04:49:59;;;;;;;37.70;9.43;;;;;;;3.28;100.00;102178.09;5033551;28;20033;-84
2021/12/20 04:52:25;;;;;;;32.15;10.65;;;;;;;3.21;100.00;102180.22;5033027;28;20440;-84
2021/12/20 04:54:50;;;;;;;52.92;26.20;;;;;;;3.17;100.00;102186.66;5030951;28;20041;-84
2021/12/20 04:57:16;;;;;;;124.20;65.82;;;;;;;3.26;100.00;102191.44;5014037;28;20051;-85
2021/12/20 04:59:42;;;;;;;61.03;27.00;;;;;;;3.26;100.00;102198.56;5026516;28;20135;-84
2021/12/20 05:02:07;;;;;;;36.63;11.63;;;;;;;3.24;100.00;102190.66;4994385;28;20295;-84
2021/12/20 05:04:32;;;;;;;31.45;9.40;;;;;;;3.19;100.00;102187.41;5026917;28;20056;-85
2021/12/20 05:06:58;;;;;;;45.78;16.52;;;;;;;3.05;100.00;102196.13;5008948;28;20501;-85
2021/12/20 05:09:28;;;;;;;27.02;9.30;;;;;;;3.04;100.00;102188.22;5042570;28;20433;-85
2021/12/20 05:12:01;;;;;;;30.23;8.68;;;;;;;3.00;100.00;102194.66;5041813;28;20090;-85
2021/12/20 05:14:26;;;;;;;26.98;6.70;;;;;;;3.04;100.00;102190.88;5036667;28;20405;-85
2021/12/20 05:16:52;;;;;;;26.08;7.65;;;;;;;3.06;100.00;102196.97;5026862;28;20034;-85
2021/12/20 05:19:17;;;;;;;31.20;8.07;;;;;;;3.03;100.00;102198.00;5004186;28;20128;-84
2021/12/20 05:21:42;;;;;;;32.92;8.23;;;;;;;2.98;100.00;102196.50;5023728;28;20052;-85
2021/12/20 05:24:08;;;;;;;29.23;8.65;;;;;;;2.94;100.00;102195.81;5008902;28;20041;-84
2021/12/20 05:26:33;;;;;;;28.17;8.52;;;;;;;2.96;100.00;102196.59;5017849;28;20042;-85
2021/12/20 05:29:00;;;;;;;28.17;7.82;;;;;;;2.85;100.00;102204.22;4994574;28;20860;-85
2021/12/20 05:31:26;;;;;;;28.73;6.03;;;;;;;2.76;100.00;102202.06;5004327;28;20223;-85
2021/12/20 05:33:51;;;;;;;27.60;6.75;;;;;;;2.69;100.00;102209.50;5026696;28;20048;-85
2021/12/20 05:36:16;;;;;;;28.92;7.43;;;;;;;2.73;100.00;102203.06;5029169;28;20486;-84
2021/12/20 05:38:42;;;;;;;28.08;8.05;;;;;;;2.67;100.00;102212.19;5028220;28;20142;-85
2021/12/20 05:41:07;;;;;;;38.65;8.10;;;;;;;2.71;100.00;102212.94;5007981;28;20041;-85
2021/12/20 05:43:33;;;;;;;29.60;7.47;;;;;;;2.63;100.00;102215.97;5022648;28;20041;-85
2021/12/20 05:45:58;;;;;;;25.45;7.25;;;;;;;2.46;100.00;102227.41;5021546;28;20048;-85
2021/12/20 05:48:23;;;;;;;32.10;6.60;;;;;;;2.41;100.00;102220.63;5021916;28;20562;-85
2021/12/20 05:50:53;;;;;;;19.45;6.07;;;;;;;2.37;100.00;102211.97;5013703;28;20648;-85
2021/12/20 05:53:24;;;;;;;19.10;5.95;;;;;;;2.28;100.00;102220.38;5016955;28;20038;-85
2021/12/20 05:55:50;;;;;;;30.83;6.40;;;;;;;2.24;100.00;102219.69;5023267;28;20056;-85
2021/12/20 05:58:19;;;;;;;26.50;6.07;;;;;;;2.23;100.00;102220.59;5020210;28;20538;-85
2021/12/20 06:00:48;;;;;;;28.48;6.63;;;;;;;2.21;100.00;102229.56;5020609;28;20157;-85
2021/12/20 06:03:13;;;;;;;26.13;7.05;;;;;;;2.01;100.00;102212.88;5014224;28;20037;-85
2021/12/20 06:05:41;;;;;;;27.90;5.95;;;;;;;1.87;100.00;102222.38;5022859;28;20099;-85
2021/12/20 06:08:09;;;;;;;28.33;7.25;;;;;;;1.92;100.00;102215.94;5005570;28;20041;-85
2021/12/20 06:10:35;;;;;;;28.20;7.03;;;;;;;1.83;100.00;102223.47;5021713;28;20554;-85
2021/12/20 06:13:01;;;;;;;31.35;7.22;;;;;;;1.80;100.00;102229.75;5019349;28;20076;-84
2021/12/20 06:15:27;;;;;;;32.20;7.20;;;;;;;1.73;100.00;102231.00;5010589;28;20171;-85
2021/12/20 06:17:52;;;;;;;29.45;6.72;;;;;;;1.62;100.00;102226.19;5040694;28;20255;-84
2021/12/20 06:20:18;;;;;;;22.50;6.05;;;;;;;1.61;100.00;102235.03;5016550;28;20033;-85
2021/12/20 06:22:43;;;;;;;27.20;5.90;;;;;;;1.44;100.00;102227.91;5030348;28;20037;-85
2021/12/20 06:25:08;;;;;;;27.95;6.60;;;;;;;1.42;100.00;102235.03;5023865;28;20821;-85
2021/12/20 06:27:34;;;;;;;27.92;6.85;;;;;;;1.35;100.00;102233.59;5004450;28;20042;-84
2021/12/20 06:30:00;;;;;;;34.08;6.75;;;;;;;1.33;100.00;102246.06;4990873;28;20069;-85
2021/12/20 06:32:25;;;;;;;25.75;6.38;;;;;;;1.27;100.00;102241.03;5005791;28;20056;-85
2021/12/20 06:34:50;;;;;;;29.35;6.28;;;;;;;1.26;100.00;102245.44;5022612;28;20095;-84
2021/12/20 06:37:16;;;;;;;29.70;6.75;;;;;;;1.22;100.00;102248.31;5023849;28;20042;-85
2021/12/20 06:39:42;;;;;;;24.65;5.90;;;;;;;1.08;100.00;102252.41;5004830;28;20091;-85
2021/12/20 06:42:07;;;;;;;26.63;6.32;;;;;;;1.03;100.00;102253.53;5021863;28;20470;-85
2021/12/20 06:44:33;;;;;;;26.05;6.32;;;;;;;1.07;100.00;102257.78;4998781;28;20418;-84
2021/12/20 06:46:59;;;;;;;23.15;6.20;;;;;;;1.05;100.00;102254.34;4995990;28;20064;-85
2021/12/20 06:49:25;;;;;;;20.90;5.43;;;;;;;1.02;100.00;102262.41;5043081;28;20044;-85
2021/12/20 06:51:52;;;;;;;26.90;5.93;;;;;;;1.00;100.00;102264.25;5006612;28;20044;-85
2021/12/20 06:54:19;;;;;;;18.90;5.80;;;;;;;0.91;100.00;102262.88;5027033;28;20047;-85
2021/12/20 06:56:45;;;;;;;23.27;6.32;;;;;;;0.87;100.00;102269.22;5026453;28;20049;-84
2021/12/20 06:59:10;;;;;;;26.92;6.72;;;;;;;0.87;100.00;102261.28;5041163;28;20079;-85
2021/12/20 07:01:37;;;;;;;26.75;5.80;;;;;;;0.79;100.00;102263.41;5041019;28;20044;-86
2021/12/20 07:04:03;;;;;;;21.25;6.35;;;;;;;0.86;100.00;102262.19;5008175;28;20033;-85
2021/12/20 07:06:31;;;;;;;20.05;6.50;;;;;;;0.83;100.00;102267.63;5016243;28;20049;-86
2021/12/20 07:08:57;;;;;;;27.30;6.60;;;;;;;0.80;100.00;102270.41;5025323;28;20033;-85
2021/12/20 07:11:23;;;;;;;22.30;5.30;;;;;;;0.75;100.00;102269.72;5038455;28;20037;-84
2021/12/20 07:13:50;;;;;;;22.20;6.07;;;;;;;0.73;100.00;102268.94;5022929;28;20045;-85
2021/12/20 07:16:15;;;;;;;27.35;5.43;;;;;;;0.71;100.00;102269.00;5043467;28;20041;-86
2021/12/20 07:18:42;;;;;;;21.67;5.20;;;;;;;0.70;100.00;102284.94;5024168;28;20552;-85
2021/12/20 07:21:07;;;;;;;20.38;5.80;;;;;;;0.66;100.00;102282.41;5025690;28;20045;-85
2021/12/20 07:23:34;;;;;;;22.13;6.05;;;;;;;0.62;100.00;102272.88;5020936;28;20067;-86
2021/12/20 07:26:10;;;;;;;26.17;5.53;;;;;;;0.66;100.00;102282.41;5025921;28;20090;-86
2021/12/20 07:28:35;;;;;;;20.80;5.13;;;;;;;0.57;100.00;102272.22;5005167;28;20072;-86
2021/12/20 07:31:01;;;;;;;20.13;4.80;;;;;;;0.55;100.00;102279.38;5006924;28;20141;-86
2021/12/20 07:33:26;;;;;;;23.73;5.50;;;;;;;0.63;100.00;102282.56;5021804;28;20048;-85
2021/12/20 07:35:53;;;;;;;19.67;4.95;;;;;;;0.60;100.00;102277.38;5008445;28;20040;-85
2021/12/20 07:38:19;;;;;;;25.25;5.82;;;;;;;0.55;100.00;102274.09;5024433;28;20140;-86
2021/12/20 07:40:47;;;;;;;24.25;6.30;;;;;;;0.51;100.00;102272.47;5024692;28;20041;-86
2021/12/20 07:43:14;;;;;;;27.20;6.78;;;;;;;0.49;100.00;102278.72;5040850;28;20059;-86
2021/12/20 07:45:41;;;;;;;24.55;6.90;;;;;;;0.45;100.00;102278.00;5015404;28;20041;-86
2021/12/20 07:48:07;;;;;;;24.40;5.88;;;;;;;0.49;100.00;102279.63;5020650;28;20080;-85
2021/12/20 07:50:32;;;;;;;22.90;5.88;;;;;;;0.43;100.00;102280.72;5022840;28;20049;-85
2021/12/20 07:52:58;;;;;;;21.25;5.68;;;;;;;0.51;100.00;102284.81;5026178;28;20072;-85
2021/12/20 07:55:23;;;;;;;22.52;5.80;;;;;;;0.50;100.00;102288.41;5004360;28;20120;-85
2021/12/20 07:57:50;;;;;;;22.40;5.82;;;;;;;0.44;100.00;102292.16;5008941;28;20160;-85
2021/12/20 08:00:16;;;;;;;25.08;6.13;;;;;;;0.38;100.00;102290.63;5020232;28;20492;-86
2021/12/20 08:02:47;;;;;;;19.38;6.00;;;;;;;0.38;100.00;102289.75;5025711;28;20133;-85
2021/12/20 08:05:18;;;;;;;22.67;5.93;;;;;;;0.39;100.00;102291.47;5023846;28;20375;-85
2021/12/20 08:07:45;;;;;;;22.08;6.22;;;;;;;0.41;100.00;102302.84;5027797;28;20050;-85
2021/12/20 08:10:11;;;;;;;27.48;7.75;;;;;;;0.38;100.00;102308.25;5023001;28;20113;-85
2021/12/20 08:12:36;;;;;;;25.55;6.43;;;;;;;0.41;100.00;102302.84;5031708;28;20050;-85
2021/12/20 08:15:02;;;;;;;19.25;5.28;;;;;;;0.33;100.00;102312.84;5030325;28;20059;-85
2021/12/20 08:17:28;;;;;;;25.38;7.47;;;;;;;0.32;100.00;102304.06;5030390;28;20448;-85
2021/12/20 08:19:54;;;;;;;25.70;6.82;;;;;;;0.37;100.00;102301.22;5031287;28;20128;-85
2021/12/20 08:22:24;;;;;;;25.98;6.40;;;;;;;0.41;100.00;102303.69;5029372;28;20065;-85
2021/12/20 08:24:49;;;;;;;25.58;7.22;;;;;;;0.40;100.00;102314.31;5031254;28;20049;-86
2021/12/20 08:27:15;;;;;;;23.88;7.18;;;;;;;0.36;100.00;102300.38;5033726;28;20046;-85
2021/12/20 08:29:40;;;;;;;22.83;6.63;;;;;;;0.40;100.00;102312.56;5012093;28;20432;-86
2021/12/20 08:32:06;;;;;;;30.35;6.75;;;;;;;0.41;100.00;102308.13;5024782;28;20056;-85
2021/12/20 08:34:31;;;;;;;25.33;6.80;;;;;;;0.43;100.00;102312.44;5013345;28;21136;-86
2021/12/20 08:36:59;;;;;;;27.60;7.72;;;;;;;0.45;100.00;102309.69;5028736;28;20056;-85
2021/12/20 08:39:24;;;;;;;24.75;7.13;;;;;;;0.41;100.00;102319.53;5029501;28;20483;-85
2021/12/20 08:41:49;;;;;;;29.15;7.45;;;;;;;0.43;100.00;102324.75;5014465;28;20037;-85
2021/12/20 08:44:15;;;;;;;25.92;7.88;;;;;;;0.48;100.00;102325.44;5007122;28;20091;-85
2021/12/20 08:46:41;;;;;;;28.77;7.90;;;;;;;0.45;100.00;102330.84;5030600;28;20050;-85
2021/12/20 08:49:08;;;;;;;36.28;7.97;;;;;;;0.47;100.00;102338.72;5027906;28;20501;-85
2021/12/20 08:51:35;;;;;;;33.95;8.50;;;;;;;0.51;100.00;102338.50;5029160;28;20049;-85
2021/12/20 08:54:00;;;;;;;33.47;9.10;;;;;;;0.52;100.00;102334.97;5031259;28;20466;-85
2021/12/20 08:56:26;;;;;;;24.70;8.38;;;;;;;0.56;100.00;102339.19;5029729;28;20164;-85
2021/12/20 08:58:51;;;;;;;32.20;9.45;;;;;;;0.63;100.00;102345.97;5013508;28;20037;-85
2021/12/20 09:01:17;;;;;;;45.03;11.23;;;;;;;0.67;100.00;102344.91;5030821;28;20128;-85
2021/12/20 09:03:46;;;;;;;45.33;16.10;;;;;;;0.75;100.00;102338.44;5029160;28;20478;-86
2021/12/20 09:06:13;;;;;;;66.85;19.15;;;;;;;0.76;100.00;102350.75;5029172;28;20077;-85
2021/12/20 09:08:40;;;;;;;52.45;17.45;;;;;;;0.83;100.00;102353.03;5030455;28;20041;-85
2021/12/20 09:11:05;;;;;;;61.55;20.73;;;;;;;0.90;100.00;102345.75;5029744;28;20053;-86
2021/12/20 09:13:31;;;;;;;45.92;24.10;;;;;;;0.93;100.00;102345.63;5012813;28;20539;-86
2021/12/20 09:15:59;;;;;;;44.60;24.67;;;;;;;1.02;100.00;102345.22;5009112;28;20038;-85
2021/12/20 09:18:26;;;;;;;49.85;23.60;;;;;;;1.08;100.00;102354.69;5043218;28;20129;-85
2021/12/20 09:20:51;;;;;;;55.95;25.10;;;;;;;1.09;100.00;102349.34;5028732;28;20041;-85
2021/12/20 09:23:17;;;;;;;57.08;25.83;;;;;;;1.12;100.00;102350.97;5028918;28;20037;-85
2021/12/20 09:25:43;;;;;;;48.13;21.98;;;;;;;1.08;100.00;102355.53;5030450;28;20072;-85
2021/12/20 09:28:10;;;;;;;37.28;21.42;;;;;;;1.11;100.00;102359.84;5012994;28;20041;-85
2021/12/20 09:30:38;;;;;;;41.28;22.65;;;;;;;1.17;100.00;102350.78;5030046;28;20068;-85
2021/12/20 09:33:04;;;;;;;36.05;20.83;;;;;;;1.24;100.00;102357.56;5013759;28;20081;-85
2021/12/20 09:35:31;;;;;;;32.83;21.25;;;;;;;1.23;100.00;102361.94;5027990;28;20615;-85
2021/12/20 09:37:56;;;;;;;37.15;24.35;;;;;;;1.29;100.00;102360.84;5031206;28;20079;-85
2021/12/20 09:40:32;;;;;;;34.08;22.80;;;;;;;1.36;100.00;102367.59;5027612;28;20069;-85
2021/12/20 09:43:01;;;;;;;34.33;22.35;;;;;;;1.37;100.00;102369.28;5030870;28;20053;-86
2021/12/20 09:45:28;;;;;;;40.63;25.48;;;;;;;1.47;100.00;102370.63;5029135;28;20049;-86
2021/12/20 09:47:55;;;;;;;49.03;27.95;;;;;;;1.55;100.00;102371.16;5012759;28;20487;-85
2021/12/20 09:50:20;;;;;;;43.50;29.67;;;;;;;1.66;100.00;102364.50;5008366;28;20038;-85
2021/12/20 09:52:46;;;;;;;43.10;28.08;;;;;;;1.71;100.00;102360.75;5043183;28;20057;-85
2021/12/20 09:55:15;;;;;;;52.97;29.90;;;;;;;1.84;100.00;102357.53;5012881;28;20061;-84
2021/12/20 09:57:42;;;;;;;51.83;32.23;;;;;;;1.88;100.00;102359.97;5029111;28;20053;-85
2021/12/20 10:00:11;;;;;;;48.67;32.05;;;;;;;1.92;100.00;102356.25;5030682;28;20053;-85
2021/12/20 10:02:36;;;;;;;47.63;30.33;;;;;;;1.97;100.00;102348.97;5025836;28;20123;-85
2021/12/20 10:05:03;;;;;;;48.72;30.33;;;;;;;2.03;100.00;102359.25;5022366;28;20482;-86
2021/12/20 10:07:29;;;;;;;45.97;28.73;;;;;;;2.10;100.00;102358.97;5022992;28;20501;-85
2021/12/20 10:09:56;;;;;;;59.15;33.17;;;;;;;2.19;100.00;102358.56;5027987;28;20076;-85
2021/12/20 10:12:25;;;;;;;57.50;32.30;;;;;;;2.25;100.00;102364.44;5022779;28;20076;-86
2021/12/20 10:15:08;;;;;;;59.00;33.65;;;;;;;2.33;100.00;102363.19;5038665;28;20048;-85
2021/12/20 10:17:55;;;;;;;58.50;32.47;;;;;;;2.36;100.00;102360.41;5022092;28;20041;-85
2021/12/20 10:20:31;;;;;;;42.40;29.23;;;;;;;2.45;100.00;102367.94;5018920;28;20117;-85
2021/12/20 10:23:13;;;;;;;47.08;29.98;;;;;;;2.52;100.00;102368.50;5025051;28;20037;-86
2021/12/20 10:25:41;;;;;;;43.97;26.95;;;;;;;2.55;100.00;102371.84;4990194;28;20049;-85
2021/12/20 10:28:19;;;;;;;37.65;25.67;;;;;;;2.66;100.00;102374.00;5020842;28;20041;-85
2021/12/20 10:30:46;;;;;;;39.45;23.25;;;;;;;2.69;100.00;102373.84;5016256;28;20393;-86
2021/12/20 10:33:16;;;;;;;39.90;22.80;;;;;;;2.77;100.00;102370.81;5018778;28;20033;-86
2021/12/20 10:35:49;;;;;;;44.88;24.25;;;;;;;2.86;100.00;102379.16;5007051;28;20052;-86
2021/12/20 10:38:33;;;;;;;39.47;22.60;;;;;;;2.89;100.00;102371.06;5021284;28;20045;-85
2021/12/20 10:41:07;;;;;;;39.95;22.20;;;;;;;2.94;100.00;102374.34;5023299;28;20525;-85
2021/12/20 10:43:37;;;;;;;36.75;21.15;;;;;;;3.01;100.00;102379.34;5018759;28;20079;-86
2021/12/20 10:46:23;;;;;;;46.22;20.02;;;;;;;3.14;100.00;102375.16;5022242;28;20045;-85
2021/12/20 10:48:52;;;;;;;41.15;18.30;;;;;;;3.34;100.00;102374.16;5004678;28;20041;-85
2021/12/20 10:51:22;;;;;;;41.53;18.67;;;;;;;3.42;100.00;102371.94;5017451;28;20037;-84
2021/12/20 10:53:58;;;;;;;33.92;16.55;;;;;;;3.44;100.00;102372.72;5023702;28;20041;-84
2021/12/20 10:56:25;;;;;;;32.60;16.70;;;;;;;3.49;100.00;102362.72;5019103;28;20485;-85
2021/12/20 10:58:51;;;;;;;32.67;15.52;;;;;;;3.60;100.00;102370.13;5021925;28;20121;-85
2021/12/20 11:03:05;;;;;;;29.10;13.82;;;;;;;3.72;100.00;102372.13;5024259;28;20124;-84
2021/12/20 11:04:12;;;;;;;26.83;10.40;;;;;;;3.95;100.00;102367.41;5012701;28;20076;-84
2021/12/20 11:09:15;;;;;;;25.52;7.70;;;;;;;4.12;100.00;102370.00;5013732;28;20064;-83
2021/12/20 11:11:45;;;;;;;25.85;7.63;;;;;;;4.12;100.00;102367.34;5018022;28;20048;-84
2021/12/20 11:14:11;;;;;;;22.67;7.13;;;;;;;4.09;100.00;102370.16;5021453;28;20262;-84
2021/12/20 11:16:48;;;;;;;23.75;7.47;;;;;;;4.25;100.00;102373.66;5017900;28;20532;-83
2021/12/20 11:19:36;;;;;;;27.05;6.75;;;;;;;4.39;100.00;102372.06;5017237;28;20056;-84
2021/12/20 11:22:10;;;;;;;28.13;6.78;;;;;;;4.44;100.00;102370.84;5022253;28;20136;-84
2021/12/20 11:24:50;;;;;;;28.17;7.50;;;;;;;4.56;100.00;102371.97;5020489;28;20057;-84
2021/12/20 11:27:21;;;;;;;27.42;7.80;;;;;;;4.55;100.00;102366.75;5019928;28;20064;-84
2021/12/20 11:29:48;;;;;;;23.40;6.53;;;;;;;4.62;100.00;102360.97;5036858;28;20045;-84
2021/12/20 11:32:15;;;;;;;29.52;7.38;;;;;;;4.66;100.00;102356.34;5020586;28;20045;-84